createdAt,value
2018-10-07T00:00:09.676Z,62.3
2018-10-07T00:01:10.929Z,57.5
2018-10-07T00:02:11.945Z,62.7
2018-10-07T00:03:13.250Z,65.4
2018-10-07T00:04:14.215Z,71.3
2018-10-07T00:05:15.675Z,71.5
2018-10-07T00:06:17.348Z,67.4
2018-10-07T00:07:18.823Z,68.2
2018-10-07T00:08:21.060Z,65.7
2018-10-07T00:09:22.743Z,66.5
2018-10-07T00:10:25.107Z,68.2
2018-10-07T00:11:27.128Z,78.4
2018-10-07T00:12:29.106Z,81.0
2018-10-07T00:13:30.543Z,81.6
2018-10-07T00:14:32.239Z,82.5
2018-10-07T00:15:33.483Z,83.8
2018-10-07T00:16:35.044Z,81.8
2018-10-07T00:17:37.096Z,81.5
2018-10-07T00:18:38.561Z,84.9
2018-10-07T00:19:40.291Z,92.9
2018-10-07T00:20:42.091Z,93.5
2018-10-07T00:21:44.204Z,91.0
2018-10-07T00:22:46.592Z,82.6
2018-10-07T00:23:48.656Z,83.9
2018-10-07T00:24:51.016Z,89.5
2018-10-07T00:25:53.086Z,91.2
2018-10-07T00:26:55.125Z,92.7
2018-10-07T00:27:57.173Z,91.3
2018-10-07T00:28:59.194Z,96.3
2018-10-07T00:30:01.885Z,94.5
2018-10-07T00:31:03.028Z,103.2
2018-10-07T00:32:05.147Z,108.9
2018-10-07T00:33:06.948Z,110.4
2018-10-07T00:34:09.017Z,109.7
2018-10-07T00:35:11.669Z,107.5
2018-10-07T00:36:13.590Z,109.0
2018-10-07T00:37:16.090Z,112.1
2018-10-07T00:38:18.028Z,105.0
2018-10-07T00:39:20.294Z,106.5
2018-10-07T00:40:21.243Z,103.3
2018-10-07T00:41:22.884Z,104.8
2018-10-07T00:42:23.796Z,103.3
2018-10-07T00:43:25.295Z,99.9
2018-10-07T00:44:26.021Z,104.0
2018-10-07T00:45:26.755Z,100.0
2018-10-07T00:46:27.525Z,97.1
2018-10-07T00:47:28.242Z,99.1
2018-10-07T00:48:28.969Z,102.8
2018-10-07T00:49:29.936Z,108.1
2018-10-07T00:50:30.665Z,106.6
2018-10-07T00:51:31.386Z,102.7
2018-10-07T00:52:32.118Z,106.4
2018-10-07T00:53:32.850Z,105.2
2018-10-07T00:54:33.617Z,104.0
2018-10-07T00:55:34.333Z,104.1
2018-10-07T00:56:35.070Z,106.2
2018-10-07T00:57:35.801Z,107.1
2018-10-07T00:58:36.570Z,109.0
2018-10-07T00:59:37.296Z,109.2
2018-10-07T01:00:38.026Z,110.0
2018-10-07T01:01:38.774Z,107.9
2018-10-07T01:02:39.503Z,109.0
2018-10-07T01:03:40.476Z,112.2
2018-10-07T01:04:41.188Z,110.1
2018-10-07T01:05:41.900Z,109.1
2018-10-07T01:06:42.622Z,109.4
2018-10-07T01:07:43.337Z,107.7
2018-10-07T01:08:44.070Z,111.2
2018-10-07T01:09:45.097Z,105.9
2018-10-07T01:10:45.815Z,108.1
2018-10-07T01:11:46.537Z,111.6
2018-10-07T01:12:47.503Z,108.8
2018-10-07T01:13:48.482Z,118.7
2018-10-07T01:14:49.200Z,117.9
2018-10-07T01:15:49.919Z,118.6
2018-10-07T01:16:50.641Z,117.8
2018-10-07T01:17:51.357Z,124.7
2018-10-07T01:18:52.091Z,125.2
2018-10-07T01:19:52.814Z,126.4
2018-10-07T01:20:53.528Z,119.8
2018-10-07T01:21:54.274Z,115.2
2018-10-07T01:22:54.998Z,108.5
2018-10-07T01:23:55.737Z,107.2
2018-10-07T01:24:56.468Z,102.9
2018-10-07T01:25:57.447Z,99.4
2018-10-07T01:26:58.173Z,102.5
2018-10-07T01:27:58.897Z,104.5
2018-10-07T01:28:59.879Z,105.1
2018-10-07T01:30:00.651Z,101.4
2018-10-07T01:31:01.364Z,99.9
2018-10-07T01:32:02.340Z,99.0
2018-10-07T01:33:03.062Z,101.4
2018-10-07T01:34:03.783Z,104.6
2018-10-07T01:35:04.609Z,99.6
2018-10-07T01:36:05.283Z,99.2
2018-10-07T01:37:06.017Z,101.2
2018-10-07T01:38:06.730Z,99.1
2018-10-07T01:39:07.462Z,96.4
2018-10-07T01:40:08.193Z,99.8
2018-10-07T01:41:08.914Z,99.5
2018-10-07T01:42:09.650Z,99.6
2018-10-07T01:43:10.375Z,99.3
2018-10-07T01:44:11.104Z,97.7
2018-10-07T01:45:11.818Z,97.9
2018-10-07T01:46:12.543Z,99.0
2018-10-07T01:47:13.264Z,94.6
2018-10-07T01:48:13.990Z,97.6
2018-10-07T01:49:14.724Z,99.1
2018-10-07T01:50:15.438Z,100.2
2018-10-07T01:51:16.190Z,99.8
2018-10-07T01:52:16.907Z,95.2
2018-10-07T01:53:17.634Z,103.4
2018-10-07T01:54:18.353Z,97.0
2018-10-07T01:55:19.080Z,98.2
2018-10-07T01:56:19.804Z,98.0
2018-10-07T01:57:20.527Z,93.6
2018-10-07T01:58:21.264Z,96.5
2018-10-07T01:59:22.020Z,95.9
2018-10-07T02:00:22.696Z,96.9
2018-10-07T02:01:23.410Z,97.1
2018-10-07T02:02:24.145Z,96.3
2018-10-07T02:03:24.878Z,92.6
2018-10-07T02:04:25.598Z,95.5
2018-10-07T02:05:26.569Z,92.3
2018-10-07T02:06:27.306Z,90.8
2018-10-07T02:07:28.028Z,93.7
2018-10-07T02:08:28.745Z,87.5
2018-10-07T02:09:29.487Z,86.7
2018-10-07T02:10:30.253Z,84.1
2018-10-07T02:11:30.986Z,80.4
2018-10-07T02:12:31.724Z,81.6
2018-10-07T02:13:32.449Z,79.2
2018-10-07T02:14:33.183Z,75.8
2018-10-07T02:15:33.963Z,75.8
2018-10-07T02:16:34.685Z,78.1
2018-10-07T02:17:35.409Z,77.1
2018-10-07T02:18:36.139Z,77.8
2018-10-07T02:19:36.866Z,79.7
2018-10-07T02:20:37.589Z,76.6
2018-10-07T02:21:38.366Z,77.3
2018-10-07T02:22:39.081Z,76.0
2018-10-07T02:23:39.815Z,75.9
2018-10-07T02:24:40.533Z,74.5
2018-10-07T02:25:41.265Z,75.8
2018-10-07T02:26:41.995Z,70.9
2018-10-07T02:27:42.714Z,66.0
2018-10-07T02:28:43.434Z,64.7
2018-10-07T02:29:44.412Z,60.3
2018-10-07T02:30:45.139Z,56.4
2018-10-07T02:31:45.867Z,54.9
2018-10-07T02:32:46.592Z,49.3
2018-10-07T02:33:47.316Z,45.0
2018-10-07T02:34:48.042Z,40.8
2018-10-07T02:35:48.772Z,38.2
2018-10-07T02:36:49.488Z,33.5
2018-10-07T02:37:50.265Z,34.5
2018-10-07T02:38:50.991Z,31.9
2018-10-07T02:39:51.706Z,26.9
2018-10-07T02:40:52.677Z,27.7
2018-10-07T02:41:53.402Z,26.1
2018-10-07T02:42:54.162Z,23.7
2018-10-07T02:43:54.893Z,22.2
2018-10-07T02:44:55.602Z,22.7
2018-10-07T02:45:56.339Z,22.6
2018-10-07T02:46:57.048Z,21.2
2018-10-07T02:47:57.806Z,19.3
2018-10-07T02:48:58.520Z,20.2
2018-10-07T02:49:59.301Z,20.1
2018-10-07T02:51:00.014Z,19.2
2018-10-07T02:52:00.733Z,20.1
2018-10-07T02:53:01.476Z,19.7
2018-10-07T02:54:02.181Z,20.6
2018-10-07T02:55:02.962Z,21.4
2018-10-07T02:56:03.690Z,20.8
2018-10-07T02:57:04.411Z,20.6
2018-10-07T02:58:05.143Z,20.0
2018-10-07T02:59:05.864Z,20.3
2018-10-07T03:00:06.582Z,20.4
2018-10-07T03:01:07.307Z,21.3
2018-10-07T03:02:08.020Z,21.8
2018-10-07T03:03:08.762Z,22.4
2018-10-07T03:04:09.488Z,22.3
2018-10-07T03:05:10.255Z,23.7
2018-10-07T03:06:10.994Z,25.4
2018-10-07T03:07:11.715Z,25.4
2018-10-07T03:08:12.435Z,25.3
2018-10-07T03:09:13.167Z,25.1
2018-10-07T03:10:13.886Z,25.4
2018-10-07T03:11:14.621Z,25.5
2018-10-07T03:12:15.345Z,25.1
2018-10-07T03:13:16.055Z,25.7
2018-10-07T03:14:16.835Z,27.1
2018-10-07T03:15:17.527Z,24.3
2018-10-07T03:16:19.057Z,26.0
2018-10-07T03:17:19.834Z,25.5
2018-10-07T03:18:20.555Z,25.6
2018-10-07T03:19:21.528Z,25.8
2018-10-07T03:20:22.238Z,23.6
2018-10-07T03:21:22.965Z,23.5
2018-10-07T03:22:23.684Z,23.1
2018-10-07T03:23:24.409Z,21.1
2018-10-07T03:24:25.136Z,22.1
2018-10-07T03:25:25.856Z,20.8
2018-10-07T03:26:26.834Z,20.1
2018-10-07T03:27:27.543Z,18.5
2018-10-07T03:28:28.266Z,17.3
2018-10-07T03:29:29.059Z,17.4
2018-10-07T03:30:29.719Z,16.3
2018-10-07T03:31:30.458Z,17.3
2018-10-07T03:32:31.168Z,18.0
2018-10-07T03:33:31.898Z,17.0
2018-10-07T03:34:32.867Z,17.1
2018-10-07T03:35:33.586Z,18.1
2018-10-07T03:36:34.316Z,18.8
2018-10-07T03:37:35.030Z,19.4
2018-10-07T03:38:35.753Z,19.2
2018-10-07T03:39:36.479Z,18.7
2018-10-07T03:40:37.205Z,21.1
2018-10-07T03:41:37.928Z,19.3
2018-10-07T03:42:38.644Z,19.3
2018-10-07T03:43:39.357Z,18.2
2018-10-07T03:44:40.078Z,18.2
2018-10-07T03:45:40.807Z,17.3
2018-10-07T03:46:41.529Z,17.8
2018-10-07T03:47:42.247Z,17.3
2018-10-07T03:48:42.969Z,17.0
2018-10-07T03:49:43.700Z,15.3
2018-10-07T03:50:44.405Z,15.2
2018-10-07T03:51:45.179Z,14.9
2018-10-07T03:52:45.898Z,14.4
2018-10-07T03:53:46.613Z,14.1
2018-10-07T03:54:47.572Z,13.2
2018-10-07T03:55:48.296Z,12.5
2018-10-07T03:56:49.012Z,11.9
2018-10-07T03:57:49.739Z,11.7
2018-10-07T03:58:50.455Z,13.4
2018-10-07T03:59:51.174Z,12.0
2018-10-07T04:00:51.893Z,11.3
2018-10-07T04:01:52.664Z,13.5
2018-10-07T04:02:53.372Z,12.6
2018-10-07T04:03:54.094Z,12.1
2018-10-07T04:04:54.811Z,12.0
2018-10-07T04:05:55.541Z,12.4
2018-10-07T04:06:56.300Z,11.3
2018-10-07T04:07:57.021Z,12.0
2018-10-07T04:08:57.734Z,13.8
2018-10-07T04:09:58.445Z,12.3
2018-10-07T04:10:59.178Z,15.0
2018-10-07T04:11:59.885Z,15.0
2018-10-07T04:13:00.602Z,16.2
2018-10-07T04:14:01.333Z,16.6
2018-10-07T04:15:02.048Z,17.3
2018-10-07T04:16:02.779Z,17.8
2018-10-07T04:17:03.501Z,18.0
2018-10-07T04:18:04.218Z,17.5
2018-10-07T04:19:05.240Z,17.9
2018-10-07T04:20:05.964Z,18.1
2018-10-07T04:21:06.678Z,18.0
2018-10-07T04:22:07.394Z,17.3
2018-10-07T04:23:08.353Z,17.6
2018-10-07T04:24:09.134Z,17.4
2018-10-07T04:25:09.854Z,17.1
2018-10-07T04:26:10.578Z,18.2
2018-10-07T04:27:11.302Z,17.0
2018-10-07T04:28:12.016Z,17.5
2018-10-07T04:29:12.743Z,17.3
2018-10-07T04:30:13.463Z,16.4
2018-10-07T04:31:14.184Z,16.2
2018-10-07T04:32:14.906Z,16.4
2018-10-07T04:33:15.614Z,16.8
2018-10-07T04:34:16.332Z,16.7
2018-10-07T04:35:17.293Z,16.9
2018-10-07T04:36:18.021Z,16.5
2018-10-07T04:37:18.744Z,17.0
2018-10-07T04:38:19.465Z,15.5
2018-10-07T04:39:20.173Z,15.3
2018-10-07T04:40:20.893Z,15.8
2018-10-07T04:41:21.651Z,16.7
2018-10-07T04:42:22.369Z,16.0
2018-10-07T04:43:23.083Z,15.1
2018-10-07T04:44:23.812Z,16.1
2018-10-07T04:45:24.532Z,15.4
2018-10-07T04:46:25.621Z,15.4
2018-10-07T04:47:26.269Z,15.8
2018-10-07T04:48:26.997Z,14.9
2018-10-07T04:49:27.707Z,16.2
2018-10-07T04:50:28.419Z,15.1
2018-10-07T04:51:29.146Z,15.2
2018-10-07T04:52:29.859Z,16.0
2018-10-07T04:53:30.822Z,14.7
2018-10-07T04:54:31.551Z,14.8
2018-10-07T04:55:32.262Z,15.4
2018-10-07T04:56:32.973Z,14.8
2018-10-07T04:57:33.695Z,14.7
2018-10-07T04:58:34.419Z,12.2
2018-10-07T04:59:35.148Z,13.9
2018-10-07T05:00:35.858Z,12.6
2018-10-07T05:01:36.573Z,12.9
2018-10-07T05:02:37.551Z,10.9
2018-10-07T05:03:38.264Z,11.1
2018-10-07T05:04:38.981Z,10.2
2018-10-07T05:05:39.698Z,9.1
2018-10-07T05:06:40.420Z,8.8
2018-10-07T05:07:41.194Z,9.0
2018-10-07T05:08:41.916Z,8.5
2018-10-07T05:09:42.631Z,7.5
2018-10-07T05:10:43.344Z,7.8
2018-10-07T05:11:44.065Z,8.7
2018-10-07T05:12:44.855Z,7.6
2018-10-07T05:13:45.488Z,7.4
2018-10-07T05:14:46.203Z,7.3
2018-10-07T05:15:46.912Z,7.2
2018-10-07T05:16:47.633Z,6.9
2018-10-07T05:17:48.360Z,6.9
2018-10-07T05:18:49.083Z,7.4
2018-10-07T05:19:49.794Z,6.8
2018-10-07T05:20:50.523Z,6.6
2018-10-07T05:21:51.215Z,6.6
2018-10-07T05:22:51.933Z,6.3
2018-10-07T05:23:52.651Z,5.8
2018-10-07T05:24:53.364Z,5.5
2018-10-07T05:25:54.081Z,5.9
2018-10-07T05:26:54.792Z,5.7
2018-10-07T05:27:55.515Z,6.2
2018-10-07T05:28:56.224Z,5.5
2018-10-07T05:29:56.944Z,4.7
2018-10-07T05:30:57.668Z,5.1
2018-10-07T05:31:58.383Z,4.7
2018-10-07T05:32:59.098Z,4.7
2018-10-07T05:33:59.862Z,4.5
2018-10-07T05:35:00.569Z,4.7
2018-10-07T05:36:01.297Z,4.3
2018-10-07T05:37:02.008Z,4.2
2018-10-07T05:38:02.726Z,3.9
2018-10-07T05:39:03.503Z,3.4
2018-10-07T05:40:04.228Z,3.6
2018-10-07T05:41:04.947Z,3.6
2018-10-07T05:42:05.673Z,3.9
2018-10-07T05:43:06.397Z,3.5
2018-10-07T05:44:07.179Z,3.3
2018-10-07T05:45:07.896Z,3.6
2018-10-07T05:46:08.618Z,3.6
2018-10-07T05:47:09.599Z,3.7
2018-10-07T05:48:10.314Z,3.3
2018-10-07T05:49:11.035Z,3.3
2018-10-07T05:50:12.017Z,3.6
2018-10-07T05:51:12.741Z,3.3
2018-10-07T05:52:13.456Z,2.8
2018-10-07T05:53:14.177Z,2.9
2018-10-07T05:54:14.896Z,3.0
2018-10-07T05:55:15.621Z,2.9
2018-10-07T05:56:16.343Z,2.5
2018-10-07T05:57:17.325Z,3.6
2018-10-07T05:58:18.082Z,2.9
2018-10-07T05:59:19.050Z,3.1
2018-10-07T06:00:19.782Z,3.2
2018-10-07T06:01:20.506Z,2.8
2018-10-07T06:02:21.478Z,2.8
2018-10-07T06:03:22.227Z,3.0
2018-10-07T06:04:22.950Z,2.5
2018-10-07T06:05:23.673Z,2.7
2018-10-07T06:06:24.396Z,3.0
2018-10-07T06:07:25.129Z,2.7
2018-10-07T06:08:25.846Z,2.5
2018-10-07T06:09:26.582Z,2.5
2018-10-07T06:10:27.305Z,2.5
2018-10-07T06:11:28.022Z,2.1
2018-10-07T06:12:28.761Z,2.1
2018-10-07T06:13:29.494Z,1.8
2018-10-07T06:14:30.212Z,2.0
2018-10-07T06:15:30.934Z,1.8
2018-10-07T06:16:31.653Z,1.5
2018-10-07T06:17:32.619Z,1.8
2018-10-07T06:18:33.343Z,2.4
2018-10-07T06:19:34.066Z,1.9
2018-10-07T06:20:34.787Z,2.1
2018-10-07T06:21:35.575Z,2.0
2018-10-07T06:22:36.233Z,2.4
2018-10-07T06:23:37.215Z,2.0
2018-10-07T06:24:37.937Z,2.4
2018-10-07T06:25:38.722Z,2.2
2018-10-07T06:26:39.449Z,2.1
2018-10-07T06:27:40.169Z,2.6
2018-10-07T06:28:40.884Z,2.4
2018-10-07T06:29:41.671Z,2.5
2018-10-07T06:30:42.372Z,2.3
2018-10-07T06:31:43.097Z,2.2
2018-10-07T06:32:43.830Z,1.9
2018-10-07T06:33:44.560Z,2.5
2018-10-07T06:34:45.298Z,2.5
2018-10-07T06:35:46.023Z,2.5
2018-10-07T06:36:46.767Z,2.3
2018-10-07T06:37:47.491Z,2.2
2018-10-07T06:38:48.269Z,2.2
2018-10-07T06:39:48.993Z,2.2
2018-10-07T06:40:49.651Z,2.0
2018-10-07T06:41:50.369Z,1.8
2018-10-07T06:42:51.092Z,1.7
2018-10-07T06:43:51.833Z,2.0
2018-10-07T06:44:52.556Z,1.6
2018-10-07T06:45:53.313Z,1.4
2018-10-07T06:46:54.014Z,1.3
2018-10-07T06:47:54.756Z,1.7
2018-10-07T06:48:55.484Z,1.4
2018-10-07T06:49:56.229Z,1.4
2018-10-07T06:50:56.958Z,1.5
2018-10-07T06:51:57.672Z,1.3
2018-10-07T06:52:58.382Z,1.2
2018-10-07T06:53:59.103Z,1.2
2018-10-07T06:54:59.822Z,1.2
2018-10-07T06:56:00.537Z,1.3
2018-10-07T06:57:01.279Z,1.2
2018-10-07T06:58:02.009Z,1.0
2018-10-07T06:59:02.738Z,1.0
2018-10-07T07:00:03.457Z,1.2
2018-10-07T07:01:04.186Z,1.1
2018-10-07T07:02:04.910Z,1.0
2018-10-07T07:03:05.631Z,1.0
2018-10-07T07:04:06.349Z,1.3
2018-10-07T07:05:07.060Z,1.4
2018-10-07T07:06:07.787Z,1.2
2018-10-07T07:07:08.752Z,1.3
2018-10-07T07:08:09.471Z,0.8
2018-10-07T07:09:10.202Z,0.9
2018-10-07T07:10:10.927Z,0.9
2018-10-07T07:11:11.649Z,0.8
2018-10-07T07:12:12.372Z,1.0
2018-10-07T07:13:13.093Z,1.0
2018-10-07T07:14:13.811Z,0.8
2018-10-07T07:15:14.532Z,0.8
2018-10-07T07:16:15.263Z,0.7
2018-10-07T07:17:15.999Z,0.8
2018-10-07T07:18:16.713Z,0.6
2018-10-07T07:19:17.431Z,0.7
2018-10-07T07:20:18.431Z,0.8
2018-10-07T07:21:19.175Z,0.8
2018-10-07T07:22:19.891Z,1.0
2018-10-07T07:23:20.618Z,0.8
2018-10-07T07:24:21.347Z,1.0
2018-10-07T07:25:22.055Z,0.7
2018-10-07T07:26:22.795Z,0.7
2018-10-07T07:27:23.512Z,0.8
2018-10-07T07:28:24.248Z,0.7
2018-10-07T07:29:24.959Z,0.6
2018-10-07T07:30:25.691Z,0.6
2018-10-07T07:31:26.741Z,0.5
2018-10-07T07:32:27.388Z,0.7
2018-10-07T07:33:28.116Z,0.8
2018-10-07T07:34:28.839Z,0.6
2018-10-07T07:35:29.566Z,0.8
2018-10-07T07:36:30.302Z,0.9
2018-10-07T07:37:31.029Z,0.7
2018-10-07T07:38:31.748Z,0.9
2018-10-07T07:39:32.476Z,0.6
2018-10-07T07:40:33.446Z,0.9
2018-10-07T07:41:34.165Z,0.8
2018-10-07T07:42:34.890Z,1.0
2018-10-07T07:43:35.624Z,0.7
2018-10-07T07:44:36.348Z,0.6
2018-10-07T07:45:37.078Z,0.5
2018-10-07T07:46:37.795Z,0.6
2018-10-07T07:47:38.511Z,0.5
2018-10-07T07:48:39.252Z,0.5
2018-10-07T07:49:39.969Z,0.6
2018-10-07T07:50:40.697Z,0.6
2018-10-07T07:51:41.425Z,0.5
2018-10-07T07:52:42.152Z,0.8
2018-10-07T07:53:42.885Z,0.7
2018-10-07T07:54:43.607Z,0.6
2018-10-07T07:55:44.331Z,0.6
2018-10-07T07:56:45.062Z,1.1
2018-10-07T07:57:45.799Z,0.6
2018-10-07T07:58:46.524Z,0.5
2018-10-07T07:59:47.248Z,0.5
2018-10-07T08:00:47.972Z,0.5
2018-10-07T08:01:48.706Z,0.5
2018-10-07T08:02:49.474Z,0.5
2018-10-07T08:03:50.200Z,0.6
2018-10-07T08:04:50.918Z,0.6
2018-10-07T08:05:51.886Z,0.6
2018-10-07T08:06:52.606Z,0.8
2018-10-07T08:07:53.338Z,0.5
2018-10-07T08:08:54.074Z,0.5
2018-10-07T08:09:54.778Z,0.6
2018-10-07T08:10:55.494Z,0.5
2018-10-07T08:11:56.240Z,0.5
2018-10-07T08:12:56.969Z,0.5
2018-10-07T08:13:57.694Z,0.7
2018-10-07T08:14:58.416Z,0.5
2018-10-07T08:15:59.137Z,0.5
2018-10-07T08:16:59.858Z,0.6
2018-10-07T08:18:00.590Z,0.7
2018-10-07T08:19:01.325Z,0.6
2018-10-07T08:20:02.061Z,0.6
2018-10-07T08:21:02.842Z,0.7
2018-10-07T08:22:03.561Z,0.5
2018-10-07T08:23:04.302Z,0.5
2018-10-07T08:24:05.029Z,0.5
2018-10-07T08:25:06.007Z,0.7
2018-10-07T08:26:06.747Z,0.8
2018-10-07T08:27:07.470Z,0.8
2018-10-07T08:28:08.211Z,0.6
2018-10-07T08:29:08.932Z,0.7
2018-10-07T08:30:09.652Z,0.6
2018-10-07T08:31:10.381Z,1.1
2018-10-07T08:32:11.105Z,0.7
2018-10-07T08:33:11.844Z,0.7
2018-10-07T08:34:12.563Z,0.5
2018-10-07T08:35:13.601Z,0.5
2018-10-07T08:36:14.273Z,0.6
2018-10-07T08:37:15.050Z,0.7
2018-10-07T08:38:15.788Z,0.6
2018-10-07T08:39:16.518Z,0.7
2018-10-07T08:40:17.245Z,0.6
2018-10-07T08:41:17.970Z,0.5
2018-10-07T08:42:18.768Z,0.5
2018-10-07T08:43:19.492Z,0.6
2018-10-07T08:44:20.488Z,0.5
2018-10-07T08:45:21.222Z,0.7
2018-10-07T08:46:21.944Z,0.5
2018-10-07T08:47:22.727Z,0.7
2018-10-07T08:48:23.459Z,0.5
2018-10-07T08:49:24.187Z,0.5
2018-10-07T08:50:24.905Z,0.6
2018-10-07T08:51:25.641Z,0.5
2018-10-07T08:52:26.633Z,0.7
2018-10-07T08:53:27.352Z,0.7
2018-10-07T08:54:28.081Z,0.7
2018-10-07T08:55:28.816Z,0.7
2018-10-07T08:56:29.594Z,0.8
2018-10-07T08:57:30.269Z,0.6
2018-10-07T08:58:30.994Z,0.5
2018-10-07T08:59:31.981Z,0.6
2018-10-07T09:00:32.969Z,0.6
2018-10-07T09:01:33.682Z,0.9
2018-10-07T09:02:34.921Z,0.7
2018-10-07T09:03:35.659Z,0.6
2018-10-07T09:04:36.381Z,0.7
2018-10-07T09:05:37.104Z,0.5
2018-10-07T09:06:37.837Z,0.5
2018-10-07T09:07:38.614Z,0.7
2018-10-07T09:08:39.385Z,0.6
2018-10-07T09:09:40.093Z,0.8
2018-10-07T09:10:41.071Z,0.5
2018-10-07T09:11:41.810Z,0.7
2018-10-07T09:12:42.542Z,0.7
2018-10-07T09:13:43.527Z,0.6
2018-10-07T09:14:44.280Z,0.7
2018-10-07T09:15:44.990Z,0.6
2018-10-07T09:16:45.707Z,0.6
2018-10-07T09:17:46.434Z,0.5
2018-10-07T09:18:47.183Z,0.5
2018-10-07T09:19:47.966Z,0.5
2018-10-07T09:20:48.713Z,0.5
2018-10-07T09:21:49.426Z,0.8
2018-10-07T09:22:50.159Z,0.7
2018-10-07T09:23:50.883Z,0.7
2018-10-07T09:24:51.925Z,0.6
2018-10-07T09:25:52.654Z,0.9
2018-10-07T09:26:53.525Z,0.9
2018-10-07T09:27:54.146Z,0.9
2018-10-07T09:28:54.876Z,0.6
2018-10-07T09:29:55.653Z,0.6
2018-10-07T09:30:56.379Z,0.7
2018-10-07T09:31:57.105Z,0.7
2018-10-07T09:32:57.925Z,0.7
2018-10-07T09:33:58.568Z,0.8
2018-10-07T09:34:59.294Z,0.8
2018-10-07T09:36:00.035Z,0.6
2018-10-07T09:37:00.770Z,0.6
2018-10-07T09:38:01.497Z,0.5
2018-10-07T09:39:02.224Z,0.7
2018-10-07T09:40:02.948Z,0.7
2018-10-07T09:41:03.736Z,0.6
2018-10-07T09:42:04.460Z,0.4
2018-10-07T09:43:05.199Z,0.5
2018-10-07T09:44:05.923Z,0.6
2018-10-07T09:45:06.662Z,0.6
2018-10-07T09:46:07.439Z,0.6
2018-10-07T09:47:08.220Z,0.6
2018-10-07T09:48:08.906Z,0.7
2018-10-07T09:49:09.637Z,0.7
2018-10-07T09:50:10.373Z,0.6
2018-10-07T09:51:11.149Z,0.6
2018-10-07T09:52:11.899Z,0.9
2018-10-07T09:53:12.609Z,0.7
2018-10-07T09:54:13.346Z,0.5
2018-10-07T09:55:14.065Z,0.9
2018-10-07T09:56:14.817Z,0.6
2018-10-07T09:57:15.530Z,0.7
2018-10-07T09:58:16.266Z,0.6
2018-10-07T09:59:17.009Z,0.5
2018-10-07T10:00:17.741Z,0.6
2018-10-07T10:01:18.487Z,0.5
2018-10-07T10:02:19.202Z,0.6
2018-10-07T10:03:19.924Z,0.9
2018-10-07T10:04:20.792Z,0.6
2018-10-07T10:05:21.403Z,0.7
2018-10-07T10:06:22.145Z,0.8
2018-10-07T10:07:22.918Z,0.7
2018-10-07T10:08:23.649Z,0.8
2018-10-07T10:09:24.372Z,0.9
2018-10-07T10:10:25.106Z,0.6
2018-10-07T10:11:25.954Z,0.7
2018-10-07T10:12:26.557Z,0.7
2018-10-07T10:13:27.293Z,0.6
2018-10-07T10:14:28.074Z,0.7
2018-10-07T10:15:28.814Z,0.8
2018-10-07T10:16:29.554Z,0.5
2018-10-07T10:17:30.311Z,0.7
2018-10-07T10:18:31.036Z,0.8
2018-10-07T10:19:32.036Z,0.7
2018-10-07T10:20:32.743Z,0.7
2018-10-07T10:21:33.472Z,0.6
2018-10-07T10:22:34.213Z,0.7
2018-10-07T10:23:34.937Z,1.0
2018-10-07T10:24:35.718Z,0.7
2018-10-07T10:25:36.463Z,0.7
2018-10-07T10:26:37.199Z,0.8
2018-10-07T10:27:37.921Z,0.6
2018-10-07T10:28:38.645Z,0.7
2018-10-07T10:29:39.367Z,0.7
2018-10-07T10:30:40.165Z,0.7
2018-10-07T10:31:40.894Z,0.7
2018-10-07T10:32:41.620Z,0.7
2018-10-07T10:33:42.347Z,0.7
2018-10-07T10:34:43.094Z,0.6
2018-10-07T10:35:44.081Z,0.8
2018-10-07T10:36:44.856Z,0.8
2018-10-07T10:37:45.533Z,0.7
2018-10-07T10:38:46.281Z,0.8
2018-10-07T10:39:47.043Z,0.9
2018-10-07T10:40:47.731Z,0.8
2018-10-07T10:41:48.485Z,1.2
2018-10-07T10:42:49.204Z,0.7
2018-10-07T10:43:49.934Z,0.7
2018-10-07T10:44:50.911Z,0.7
2018-10-07T10:45:51.650Z,0.6
2018-10-07T10:46:52.380Z,0.8
2018-10-07T10:47:53.363Z,0.8
2018-10-07T10:48:54.101Z,0.6
2018-10-07T10:49:55.079Z,0.9
2018-10-07T10:50:55.810Z,0.7
2018-10-07T10:51:56.538Z,0.5
2018-10-07T10:52:57.510Z,0.7
2018-10-07T10:53:58.479Z,0.7
2018-10-07T10:54:59.252Z,0.9
2018-10-07T10:55:59.951Z,0.7
2018-10-07T10:57:00.728Z,1.0
2018-10-07T10:58:01.456Z,0.7
2018-10-07T10:59:02.445Z,0.9
2018-10-07T11:00:03.183Z,0.9
2018-10-07T11:01:04.015Z,1.1
2018-10-07T11:02:04.650Z,1.0
2018-10-07T11:03:05.385Z,0.9
2018-10-07T11:04:06.125Z,0.6
2018-10-07T11:05:06.849Z,0.7
2018-10-07T11:06:07.578Z,0.6
2018-10-07T11:07:08.307Z,0.8
2018-10-07T11:08:09.032Z,0.9
2018-10-07T11:09:10.099Z,0.7
2018-10-07T11:10:10.802Z,0.9
2018-10-07T11:11:11.536Z,0.9
2018-10-07T11:12:12.522Z,0.8
2018-10-07T11:13:13.247Z,0.9
2018-10-07T11:14:13.972Z,1.3
2018-10-07T11:15:14.720Z,2.0
2018-10-07T11:16:15.435Z,1.0
2018-10-07T11:17:16.166Z,0.8
2018-10-07T11:18:16.887Z,1.2
2018-10-07T11:19:17.660Z,1.8
2018-10-07T11:20:18.363Z,6.7
2018-10-07T11:21:19.097Z,1.3
2018-10-07T11:22:19.825Z,0.7
2018-10-07T11:23:20.552Z,0.8
2018-10-07T11:24:21.284Z,1.1
2018-10-07T11:25:22.262Z,1.2
2018-10-07T11:26:22.988Z,1.6
2018-10-07T11:27:23.972Z,1.2
2018-10-07T11:28:24.715Z,0.8
2018-10-07T11:29:25.450Z,0.7
2018-10-07T11:30:26.180Z,1.2
2018-10-07T11:31:26.911Z,1.0
2018-10-07T11:32:27.644Z,0.7
2018-10-07T11:33:28.369Z,1.0
2018-10-07T11:34:29.100Z,0.7
2018-10-07T11:35:29.829Z,1.0
2018-10-07T11:36:30.559Z,0.8
2018-10-07T11:37:31.283Z,0.7
2018-10-07T11:38:32.022Z,0.7
2018-10-07T11:39:32.998Z,0.8
2018-10-07T11:40:33.726Z,0.6
2018-10-07T11:41:34.443Z,0.8
2018-10-07T11:42:35.197Z,1.1
2018-10-07T11:43:35.918Z,0.8
2018-10-07T11:44:36.655Z,0.9
2018-10-07T11:45:37.381Z,1.0
2018-10-07T11:46:39.307Z,1.0
2018-10-07T11:47:41.266Z,1.0
2018-10-07T11:48:42.858Z,0.8
2018-10-07T11:49:43.763Z,0.7
2018-10-07T11:50:45.036Z,0.8
2018-10-07T11:51:46.443Z,0.6
2018-10-07T11:52:47.375Z,0.8
2018-10-07T11:53:48.125Z,0.7
2018-10-07T11:54:49.947Z,0.7
2018-10-07T11:55:52.577Z,0.9
2018-10-07T11:56:53.609Z,0.7
2018-10-07T11:57:54.366Z,0.8
2018-10-07T11:58:55.115Z,0.6
2018-10-07T11:59:55.848Z,0.7
2018-10-07T12:00:56.585Z,0.6
2018-10-07T12:01:57.325Z,1.0
2018-10-07T12:02:58.045Z,1.1
2018-10-07T12:03:58.778Z,0.8
2018-10-07T12:04:59.516Z,0.9
2018-10-07T12:06:00.520Z,1.3
2018-10-07T12:07:01.272Z,0.8
2018-10-07T12:08:02.345Z,0.7
2018-10-07T12:09:03.065Z,0.6
2018-10-07T12:10:03.827Z,0.8
2018-10-07T12:11:04.584Z,0.9
2018-10-07T12:12:05.580Z,0.7
2018-10-07T12:13:06.296Z,1.0
2018-10-07T12:14:07.011Z,0.7
2018-10-07T12:15:07.806Z,0.7
2018-10-07T12:16:09.246Z,0.9
2018-10-07T12:17:09.968Z,0.8
2018-10-07T12:18:10.723Z,1.0
2018-10-07T12:19:11.510Z,0.7
2018-10-07T12:20:12.276Z,0.9
2018-10-07T12:21:13.009Z,3.8
2018-10-07T12:22:13.746Z,1.4
2018-10-07T12:23:14.487Z,0.8
2018-10-07T12:24:15.283Z,1.1
2018-10-07T12:25:16.030Z,0.8
2018-10-07T12:26:17.040Z,0.8
2018-10-07T12:27:18.084Z,0.9
2018-10-07T12:28:18.807Z,1.7
2018-10-07T12:29:19.592Z,0.8
2018-10-07T12:30:20.370Z,1.0
2018-10-07T12:31:21.126Z,0.9
2018-10-07T12:32:22.117Z,0.8
2018-10-07T12:33:23.172Z,0.7
2018-10-07T12:34:24.170Z,0.9
2018-10-07T12:35:24.906Z,0.6
2018-10-07T12:36:25.650Z,0.6
2018-10-07T12:37:26.417Z,0.8
2018-10-07T12:38:27.173Z,1.2
2018-10-07T12:39:27.992Z,0.6
2018-10-07T12:40:28.726Z,0.8
2018-10-07T12:41:29.452Z,0.9
2018-10-07T12:42:30.315Z,1.1
2018-10-07T12:43:30.981Z,0.8
2018-10-07T12:44:31.957Z,0.7
2018-10-07T12:45:32.728Z,0.9
2018-10-07T12:46:33.818Z,0.7
2018-10-07T12:47:34.759Z,0.8
2018-10-07T12:48:35.497Z,0.7
2018-10-07T12:49:36.271Z,0.9
2018-10-07T12:50:37.005Z,0.8
2018-10-07T12:51:37.792Z,0.8
2018-10-07T12:52:38.512Z,0.6
2018-10-07T12:53:39.488Z,0.7
2018-10-07T12:54:40.246Z,0.8
2018-10-07T12:55:40.978Z,1.0
2018-10-07T12:56:41.752Z,1.0
2018-10-07T12:57:42.487Z,0.8
2018-10-07T12:58:43.239Z,0.8
2018-10-07T12:59:43.973Z,0.8
2018-10-07T13:00:44.725Z,1.1
2018-10-07T13:01:45.983Z,1.0
2018-10-07T13:02:46.757Z,0.8
2018-10-07T13:04:48.946Z,1.0
2018-10-07T13:05:49.723Z,0.7
2018-10-07T13:06:50.503Z,0.6
2018-10-07T13:07:52.342Z,0.8
2018-10-07T13:08:53.354Z,0.8
2018-10-07T13:09:54.084Z,1.3
2018-10-07T13:10:55.107Z,1.0
2018-10-07T13:11:56.463Z,1.1
2018-10-07T13:12:57.465Z,0.8
2018-10-07T13:13:58.232Z,0.9
2018-10-07T13:14:58.960Z,1.1
2018-10-07T13:15:59.699Z,0.8
2018-10-07T13:17:00.419Z,0.9
2018-10-07T13:18:01.151Z,0.8
2018-10-07T13:19:02.144Z,0.7
2018-10-07T13:20:03.170Z,0.8
2018-10-07T13:21:03.894Z,1.2
2018-10-07T13:22:04.778Z,0.9
2018-10-07T13:23:05.914Z,0.9
2018-10-07T13:24:06.783Z,0.9
2018-10-07T13:25:07.558Z,0.6
2018-10-07T13:26:08.339Z,0.7
2018-10-07T13:27:09.339Z,0.8
2018-10-07T13:28:10.204Z,0.9
2018-10-07T13:29:10.995Z,0.8
2018-10-07T13:30:11.731Z,0.8
2018-10-07T13:31:13.558Z,0.7
2018-10-07T13:32:14.479Z,0.9
2018-10-07T13:33:15.249Z,0.9
2018-10-07T13:34:16.025Z,0.8
2018-10-07T13:35:17.325Z,0.8
2018-10-07T13:36:18.137Z,1.1
2018-10-07T13:37:18.863Z,0.8
2018-10-07T13:38:19.588Z,0.8
2018-10-07T13:39:20.316Z,1.0
2018-10-07T13:40:21.038Z,0.6
2018-10-07T13:41:21.784Z,0.7
2018-10-07T13:42:22.519Z,0.8
2018-10-07T13:43:23.255Z,0.8
2018-10-07T13:44:23.990Z,0.8
2018-10-07T13:45:24.725Z,0.8